Metar Cercanos

 

LEPA - Palma De Mallorc, Spain
Distance from station: ONO 38km
Actualización: 17/08/2018 11:00
Parcialmente nuboso
Parcialmente nuboso
 Viento del NNE
Viento: NNE 4 km/h
Temperatura: 30°C
Indice Calor: 31°C
Rocío: 19°C
Humedad: 52%
Barómetro: 1016 hPa
Clouds: Parcialmente nuboso
Visibility: 10 km
Cloud details: Few Clouds 762 m
Parcialmente nuboso 914 m
2018/08/17 09:00 LEPA 170900Z 02002KT 9999 FEW025CB SCT030 30/19 Q1016 TEMPO SCT025CB
LEMH - Mahon/Menorca Is, Spain
Distance from station: ENE 105km
Actualización: 17/08/2018 11:00
Parcialmente nuboso
Parcialmente nuboso
 Viento del SSE
Viento: SSE 7 km/h
Temperatura: 27°C
Indice Calor: 29°C
Rocío: 20°C
Humedad: 66%
Barómetro: 1016 hPa
Clouds: Parcialmente nuboso
Visibility: 10 km
Cloud details: Few Clouds 762 m
Parcialmente nuboso 914 m
2018/08/17 09:00 LEMH 170900Z 16004KT 100V210 9999 FEW025TCU SCT030 27/20 Q1016
 
LEIB - Ibiza/Es Codola, Spain
Distance from station: OSO 165km
Actualización: 17/08/2018 11:05
Rain showers, Nearby thunderstorm, Muy nuboso
Rain showers, Nearby thunderstorm, Muy nuboso
 Viento del NNE
Viento: NNE 17 km/h
Temperatura: 20°C
Rocío: 19°C
Humedad: 94%
Barómetro: 1018 hPa
Resumen: Rain showers, Nearby thunderstorm
Clouds: Muy nuboso
Visibility: 3 km
Cloud details: Few Clouds 427 m
Parcialmente nuboso 610 m
Parcialmente nuboso 762 m
Muy nuboso 823 m
2018/08/17 09:05 LEIB 170905Z 03009KT 350V060 3000 SHRA VCTS FEW014 SCT020CB SCT025 BKN027 20/19 Q1018 NOSIG
LEBL - Barcelona Airpor, Spain
Distance from station: NNO 225km
Actualización: 17/08/2018 11:00
Few Clouds
Few Clouds
 Viento del NO
Viento: NO 2 km/h
Temperatura: 28°C
Indice Calor: 29°C
Rocío: 20°C
Humedad: 62%
Barómetro: 1016 hPa
Clouds: Few Clouds
Visibility: 10 km
Cloud details: Few Clouds 1067 m
2018/08/17 09:00 LEBL 170900Z 32001KT 9999 FEW035 28/20 Q1016 NOSIG
 
LEVC - Valencia (civ/Mi, Spain
Distance from station: NO 188km
Actualización: 17/08/2018 11:00
Few Clouds
Few Clouds
 Viento del E
Viento: E 7 km/h
Temperatura: 29°C
Indice Calor: 28°C
Rocío: 14°C
Humedad: 40%
Barómetro: 1016 hPa
Clouds: Few Clouds
Visibility: 10 km
Cloud details: Few Clouds 914 m
2018/08/17 09:00 LEVC 170900Z 09004KT 050V130 9999 FEW030 29/14 Q1016 NOSIG
LEGE - Gerona/Costa Bra, Spain
Distance from station: N 276km
Actualización: 17/08/2018 11:00
Few Clouds
Few Clouds
 Viento del S
Viento: S 7 km/h
Temperatura: 27°C
Indice Calor: 28°C
Rocío: 17°C
Humedad: 54%
Barómetro: 1016 hPa
Clouds: Few Clouds
Visibility: 10 km
Cloud details: Few Clouds 1219 m
2018/08/17 09:00 LEGE 170900Z 19004KT 140V250 9999 FEW040 27/17 Q1016
 
LEAL - Alicante/El Alte, Spain
Distance from station: OSO 344km
Actualización: 17/08/2018 11:00
Parcialmente nuboso
Parcialmente nuboso
 Viento del varies
Viento: varies 4 km/h
Temperatura: 26°C
Rocío: 19°C
Humedad: 65%
Barómetro: 1016 hPa
Clouds: Parcialmente nuboso
Visibility: 10 km
Cloud details: Few Clouds 671 m
Parcialmente nuboso 1524 m
2018/08/17 09:00 LEAL 170900Z VRB02KT 9999 FEW022 SCT050 26/19 Q1016 NOSIG
LEAM - Almeria Airport, Spain
Distance from station: SSO 56km
Actualización: 17/08/2018 11:00
Few Clouds
Few Clouds
 Viento del S
Viento: S 11 km/h
Temperatura: 26°C
Rocío: 23°C
Humedad: 84%
Barómetro: 1016 hPa
Clouds: Few Clouds
Visibility: 10 km
Cloud details: Few Clouds 366 m
2018/08/17 09:00 LEAM 170900Z 18006KT 150V220 9999 FEW012 26/23 Q1016
 
LEZG - Zaragoza (mil/Ci, Spain
Distance from station: NO 431km
Actualización: 17/08/2018 11:00
Few Clouds
Few Clouds
 Viento del NO
Viento: NO 30 km/h
Temperatura: 23°C
Rocío: 14°C
Humedad: 57%
Barómetro: 1019 hPa
Clouds: Few Clouds
Visibility: 10 km
Cloud details: Few Clouds 1524 m
2018/08/17 09:00 LEZG 170900Z 31016KT 9999 FEW050 23/14 Q1019
LEMD - Madrid/Barajas, Spain
Distance from station: ONO 234km
Actualización: 17/08/2018 11:00
Despejado
Despejado
 Viento del ENE
Viento: ENE 4 km/h
Temperatura: 25°C
Rocío: 13°C
Humedad: 47%
Barómetro: 1019 hPa
Resumen: Despejado
Visibility: greater than 10 km
2018/08/17 09:00 LEMD 170900Z 07002KT CAVOK 25/13 Q1019 NOSIG
 
LEGR - Granada Airport, Spain
Distance from station: OSO 62km
Actualización: 17/08/2018 11:00
Despejado
Despejado
 Viento del varies
Viento: varies 2 km/h
Temperatura: 24°C
Rocío: 15°C
Humedad: 57%
Barómetro: 1019 hPa
Resumen: Despejado
Visibility: greater than 10 km
2018/08/17 09:00 LEGR 170900Z VRB01KT CAVOK 24/15 Q1019
LEMG - Malaga (civ/Mil), Spain
Distance from station: OSO 227km
Actualización: 17/08/2018 11:00
Despejado
Despejado
 Viento del SE
Viento: SE 15 km/h
Temperatura: 28°C
Indice Calor: 29°C
Rocío: 19°C
Humedad: 58%
Barómetro: 1016 hPa
Resumen: Despejado
Visibility: greater than 10 km
2018/08/17 09:00 LEMG 170900Z 14008KT CAVOK 28/19 Q1016 NOSIG
 
LEZL - Sevilla (civ/Mil, Spain
Distance from station: S 318km
Actualización: 17/08/2018 11:00
Despejado
Despejado
 Viento del SSE
Viento: SSE 4 km/h
Temperatura: 26°C
Rocío: 16°C
Humedad: 54%
Barómetro: 1016 hPa
Resumen: Despejado
Visibility: greater than 10 km
2018/08/17 09:00 LEZL 170900Z 15002KT CAVOK 26/16 Q1016 NOSIG
LEVT - Vitoria, Spain
Distance from station: NO 226km
Actualización: 17/08/2018 11:00
Cubierto
Cubierto
 Viento del N
Viento: N 17 km/h
Temperatura: 18°C
Rocío: 14°C
Humedad: 78%
Barómetro: 1023 hPa
Clouds: Cubierto
Visibility: 10 km
Cloud details: Few Clouds 457 m
Parcialmente nuboso 762 m
Cubierto 1067 m
2018/08/17 09:00 LEVT 170900Z 01009KT 340V050 9999 FEW015 SCT025 OVC035 18/14 Q1023
 
LEBB - Bilbao/Sondica, Spain
Distance from station: NNO 235km
Actualización: 17/08/2018 11:23
Lluvia débil, Mist, Muy nuboso
Lluvia débil, Mist, Muy nuboso
 Viento del ONO
Viento: ONO 9 km/h
Temperatura: 19°C
Rocío: 18°C
Humedad: 94%
Barómetro: 1024 hPa
Resumen: Lluvia débil, Mist
Clouds: Muy nuboso
Visibility: 5 km
Cloud details: Parcialmente nuboso 152 m
Muy nuboso 305 m
Muy nuboso 914 m
2018/08/17 09:23 LEBB 170923Z 30005KT 260V320 5000 -RA BR SCT005 BKN010 BKN030 19/18 Q1024 TEMPO 3000 RA
LESO - San Sebastian/Fu, Spain
Distance from station: N 231km
Actualización: 17/08/2018 11:00
Lluvia débil, Muy nuboso
Lluvia débil, Muy nuboso
 Viento del NNE
Viento: NNE 9 km/h
Temperatura: 19°C
Rocío: 17°C
Humedad: 88%
Barómetro: 1023 hPa
Resumen: Lluvia débil
Clouds: Muy nuboso
Visibility: 5 km
Cloud details: Parcialmente nuboso 305 m
Muy nuboso 549 m
Muy nuboso 1006 m
2018/08/17 09:00 LESO 170900Z 03005KT 340V100 5000 -RA SCT010 BKN018 BKN033 19/17 Q1023
 
LEVD - Valladolid(Mil/C, Spain
Distance from station: ONO 239km
Actualización: 17/08/2018 11:00
Despejado
Despejado
 Viento del ENE
Viento: ENE 26 km/h
Temperatura: 20°C
Rocío: 12°C
Humedad: 60%
Barómetro: 1022 hPa
Resumen: Despejado
Visibility: greater than 10 km
2018/08/17 09:00 LEVD 170900Z 06014KT 030V090 CAVOK 20/12 Q1022
LESA - Salamanca (civ/M, Spain
Distance from station: ONO 349km
Actualización: 17/08/2018 11:00
Despejado
Despejado
 Viento del ENE
Viento: ENE 15 km/h
Temperatura: 20°C
Rocío: 13°C
Humedad: 64%
Barómetro: 1021 hPa
Resumen: Despejado
Visibility: greater than 10 km
2018/08/17 09:00 LESA 170900Z 07008KT 030V110 CAVOK 20/13 Q1021
 
LEXJ - Santander/Paraya, Spain
Distance from station: NNO 247km
Actualización: 17/08/2018 11:00
Muy nuboso
Muy nuboso
 Viento del varies
Viento: varies 4 km/h
Temperatura: 18°C
Rocío: 18°C
Humedad: 100%
Barómetro: 1024 hPa
Clouds: Muy nuboso
Visibility: 8 km
Cloud details: Few Clouds 366 m
Muy nuboso 1067 m
2018/08/17 09:00 LEXJ 170900Z VRB02KT 8000 FEW012 BKN035 18/18 Q1024
LEAS - Asturias/Aviles, Spain
Distance from station: NO 214km
Actualización: 17/08/2018 11:00
Light drizzle, Muy nuboso
Light drizzle, Muy nuboso
 Viento del SSE
Viento: SSE 7 km/h
Temperatura: 17°C
Rocío: 16°C
Humedad: 94%
Barómetro: 1025 hPa
Resumen: Light Drizzle
Clouds: Muy nuboso
Visibility: 5 km
Cloud details: Few Clouds 244 m
Parcialmente nuboso 457 m
Muy nuboso 914 m
2018/08/17 09:00 LEAS 170900Z 15004KT 110V170 5000 -DZ FEW008 SCT015 BKN030 17/16 Q1025 TEMPO RADZ
 
LECO - La Coruna/Alvedr, Spain
Distance from station: ONO 222km
Actualización: 17/08/2018 11:00
Parcialmente nuboso
Parcialmente nuboso
 Viento del ENE
Viento: ENE 19 km/h
Temperatura: 19°C
Rocío: 13°C
Humedad: 68%
Barómetro: 1024 hPa
Clouds: Parcialmente nuboso
Visibility: 10 km
Cloud details: Parcialmente nuboso 610 m
2018/08/17 09:00 LECO 170900Z 06010KT 020V080 9999 SCT020 19/13 Q1024 NOSIG
LEVX - Vigo/Peinador, Spain
Distance from station: O 214km
Actualización: 17/08/2018 11:00
Despejado
Despejado
 Viento del NNE
Viento: NNE 17 km/h
Temperatura: 21°C
Rocío: 14°C
Humedad: 64%
Barómetro: 1021 hPa
Resumen: Despejado
Visibility: greater than 10 km
2018/08/17 09:00 LEVX 170900Z 02009KT 330V070 CAVOK 21/14 Q1021 NOSIG